sensor_id;sensor_type;location;lat;lon;timestamp;P1;durP1;ratioP1;P2;durP2;ratioP2
72715;SDS011;60830;64.560;40.542;2022-10-22T00:01:16;7.30;;;2.20;;
72715;SDS011;60830;64.560;40.542;2022-10-22T00:03:42;5.53;;;2.25;;
72715;SDS011;60830;64.560;40.542;2022-10-22T00:06:08;6.90;;;3.10;;
72715;SDS011;60830;64.560;40.542;2022-10-22T00:08:34;4.38;;;2.20;;
72715;SDS011;60830;64.560;40.542;2022-10-22T00:11:06;7.40;;;2.40;;
72715;SDS011;60830;64.560;40.542;2022-10-22T00:13:32;6.93;;;3.05;;
72715;SDS011;60830;64.560;40.542;2022-10-22T00:15:58;8.45;;;2.90;;
72715;SDS011;60830;64.560;40.542;2022-10-22T00:18:25;7.60;;;2.78;;
72715;SDS011;60830;64.560;40.542;2022-10-22T00:20:51;11.13;;;3.78;;
72715;SDS011;60830;64.560;40.542;2022-10-22T00:23:17;8.07;;;3.10;;
72715;SDS011;60830;64.560;40.542;2022-10-22T00:25:43;6.25;;;3.10;;
72715;SDS011;60830;64.560;40.542;2022-10-22T00:28:09;6.90;;;3.08;;
72715;SDS011;60830;64.560;40.542;2022-10-22T00:30:36;4.05;;;2.22;;
72715;SDS011;60830;64.560;40.542;2022-10-22T00:33:02;3.90;;;2.28;;
72715;SDS011;60830;64.560;40.542;2022-10-22T00:35:28;5.72;;;2.15;;
72715;SDS011;60830;64.560;40.542;2022-10-22T00:37:54;7.72;;;2.22;;
72715;SDS011;60830;64.560;40.542;2022-10-22T00:40:20;6.55;;;2.00;;
72715;SDS011;60830;64.560;40.542;2022-10-22T00:42:46;5.47;;;2.25;;
72715;SDS011;60830;64.560;40.542;2022-10-22T00:45:14;3.22;;;1.48;;
72715;SDS011;60830;64.560;40.542;2022-10-22T00:47:59;4.97;;;1.98;;
72715;SDS011;60830;64.560;40.542;2022-10-22T00:50:28;4.88;;;1.88;;
72715;SDS011;60830;64.560;40.542;2022-10-22T00:52:56;4.88;;;1.95;;
72715;SDS011;60830;64.560;40.542;2022-10-22T00:55:23;5.38;;;2.67;;
72715;SDS011;60830;64.560;40.542;2022-10-22T00:57:49;7.18;;;2.13;;
72715;SDS011;60830;64.560;40.542;2022-10-22T01:00:16;5.03;;;2.05;;
72715;SDS011;60830;64.560;40.542;2022-10-22T01:02:42;7.45;;;2.20;;
72715;SDS011;60830;64.560;40.542;2022-10-22T01:05:08;4.28;;;2.25;;
72715;SDS011;60830;64.560;40.542;2022-10-22T01:07:38;6.30;;;2.47;;
72715;SDS011;60830;64.560;40.542;2022-10-22T01:12:49;5.28;;;2.47;;
72715;SDS011;60830;64.560;40.542;2022-10-22T01:25:34;5.53;;;2.67;;
72715;SDS011;60830;64.560;40.542;2022-10-22T01:28:22;7.65;;;2.60;;
72715;SDS011;60830;64.560;40.542;2022-10-22T01:30:51;8.77;;;2.97;;
72715;SDS011;60830;64.560;40.542;2022-10-22T01:33:20;6.43;;;2.90;;
72715;SDS011;60830;64.560;40.542;2022-10-22T01:35:47;10.15;;;3.95;;
72715;SDS011;60830;64.560;40.542;2022-10-22T01:38:16;6.22;;;3.70;;
72715;SDS011;60830;64.560;40.542;2022-10-22T01:40:44;6.88;;;3.35;;
72715;SDS011;60830;64.560;40.542;2022-10-22T01:43:11;12.80;;;3.40;;
72715;SDS011;60830;64.560;40.542;2022-10-22T01:45:39;8.88;;;3.53;;
72715;SDS011;60830;64.560;40.542;2022-10-22T01:53:18;8.00;;;3.65;;
72715;SDS011;60830;64.560;40.542;2022-10-22T02:01:40;4.30;;;2.47;;
72715;SDS011;60830;64.560;40.542;2022-10-22T02:03:57;7.25;;;2.58;;
72715;SDS011;60830;64.560;40.542;2022-10-22T02:06:25;7.50;;;3.30;;
72715;SDS011;60830;64.560;40.542;2022-10-22T02:08:52;12.57;;;3.30;;
72715;SDS011;60830;64.560;40.542;2022-10-22T02:11:19;6.20;;;4.28;;
72715;SDS011;60830;64.560;40.542;2022-10-22T02:13:46;4.43;;;2.30;;
72715;SDS011;60830;64.560;40.542;2022-10-22T02:16:15;9.63;;;2.83;;
72715;SDS011;60830;64.560;40.542;2022-10-22T02:18:44;5.28;;;2.70;;
72715;SDS011;60830;64.560;40.542;2022-10-22T02:21:11;4.88;;;2.53;;
72715;SDS011;60830;64.560;40.542;2022-10-22T02:23:38;7.03;;;2.78;;
72715;SDS011;60830;64.560;40.542;2022-10-22T02:26:24;4.93;;;2.80;;
72715;SDS011;60830;64.560;40.542;2022-10-22T02:28:57;5.38;;;2.30;;
72715;SDS011;60830;64.560;40.542;2022-10-22T02:31:30;2.88;;;2.10;;
72715;SDS011;60830;64.560;40.542;2022-10-22T02:33:57;4.35;;;1.88;;
72715;SDS011;60830;64.560;40.542;2022-10-22T02:36:25;3.50;;;2.13;;
72715;SDS011;60830;64.560;40.542;2022-10-22T02:38:51;6.00;;;2.00;;
72715;SDS011;60830;64.560;40.542;2022-10-22T02:41:18;4.47;;;1.42;;
72715;SDS011;60830;64.560;40.542;2022-10-22T02:43:48;5.18;;;2.28;;
72715;SDS011;60830;64.560;40.542;2022-10-22T02:46:15;6.35;;;1.98;;
72715;SDS011;60830;64.560;40.542;2022-10-22T02:48:41;10.20;;;2.35;;
72715;SDS011;60830;64.560;40.542;2022-10-22T02:51:07;4.30;;;2.25;;
72715;SDS011;60830;64.560;40.542;2022-10-22T02:53:33;8.55;;;2.25;;
72715;SDS011;60830;64.560;40.542;2022-10-22T02:55:59;4.32;;;1.85;;
72715;SDS011;60830;64.560;40.542;2022-10-22T02:58:25;3.95;;;1.88;;
72715;SDS011;60830;64.560;40.542;2022-10-22T03:00:51;2.70;;;1.80;;
72715;SDS011;60830;64.560;40.542;2022-10-22T03:03:17;5.22;;;1.98;;
72715;SDS011;60830;64.560;40.542;2022-10-22T03:05:43;3.53;;;2.30;;
72715;SDS011;60830;64.560;40.542;2022-10-22T03:08:09;9.82;;;2.03;;
72715;SDS011;60830;64.560;40.542;2022-10-22T03:10:35;4.22;;;1.52;;
72715;SDS011;60830;64.560;40.542;2022-10-22T03:13:01;2.83;;;1.80;;
72715;SDS011;60830;64.560;40.542;2022-10-22T03:15:28;5.03;;;2.30;;
72715;SDS011;60830;64.560;40.542;2022-10-22T03:17:54;4.38;;;2.40;;
72715;SDS011;60830;64.560;40.542;2022-10-22T03:20:20;2.28;;;1.75;;
72715;SDS011;60830;64.560;40.542;2022-10-22T03:22:46;2.88;;;2.08;;
72715;SDS011;60830;64.560;40.542;2022-10-22T03:25:13;5.00;;;2.20;;
72715;SDS011;60830;64.560;40.542;2022-10-22T03:27:39;4.97;;;2.42;;
72715;SDS011;60830;64.560;40.542;2022-10-22T03:30:06;3.83;;;2.28;;
72715;SDS011;60830;64.560;40.542;2022-10-22T03:32:33;3.88;;;2.08;;
72715;SDS011;60830;64.560;40.542;2022-10-22T03:34:59;4.93;;;2.40;;
72715;SDS011;60830;64.560;40.542;2022-10-22T03:37:25;4.22;;;2.08;;
72715;SDS011;60830;64.560;40.542;2022-10-22T03:39:52;4.28;;;1.90;;
72715;SDS011;60830;64.560;40.542;2022-10-22T03:42:19;9.45;;;3.60;;
72715;SDS011;60830;64.560;40.542;2022-10-22T03:44:45;3.63;;;2.10;;
72715;SDS011;60830;64.560;40.542;2022-10-22T03:47:11;3.95;;;2.15;;
72715;SDS011;60830;64.560;40.542;2022-10-22T03:49:37;4.70;;;2.70;;
72715;SDS011;60830;64.560;40.542;2022-10-22T03:52:11;2.83;;;2.05;;
72715;SDS011;60830;64.560;40.542;2022-10-22T03:54:37;5.25;;;1.90;;
72715;SDS011;60830;64.560;40.542;2022-10-22T03:57:04;6.57;;;2.90;;
72715;SDS011;60830;64.560;40.542;2022-10-22T04:02:22;7.53;;;2.83;;
72715;SDS011;60830;64.560;40.542;2022-10-22T04:04:48;7.38;;;2.70;;
72715;SDS011;60830;64.560;40.542;2022-10-22T04:07:14;7.65;;;3.20;;
72715;SDS011;60830;64.560;40.542;2022-10-22T04:09:40;9.30;;;3.70;;
72715;SDS011;60830;64.560;40.542;2022-10-22T04:12:06;6.63;;;3.35;;
72715;SDS011;60830;64.560;40.542;2022-10-22T04:14:34;7.53;;;3.15;;
72715;SDS011;60830;64.560;40.542;2022-10-22T04:17:00;8.65;;;3.20;;
72715;SDS011;60830;64.560;40.542;2022-10-22T04:19:26;7.50;;;3.10;;
72715;SDS011;60830;64.560;40.542;2022-10-22T04:21:52;6.30;;;2.65;;
72715;SDS011;60830;64.560;40.542;2022-10-22T04:24:18;3.90;;;2.00;;
72715;SDS011;60830;64.560;40.542;2022-10-22T04:26:44;5.50;;;2.10;;
72715;SDS011;60830;64.560;40.542;2022-10-22T04:29:10;4.18;;;1.95;;
72715;SDS011;60830;64.560;40.542;2022-10-22T04:31:37;7.15;;;2.50;;
72715;SDS011;60830;64.560;40.542;2022-10-22T04:34:03;5.93;;;2.30;;
72715;SDS011;60830;64.560;40.542;2022-10-22T04:36:29;4.35;;;2.10;;
72715;SDS011;60830;64.560;40.542;2022-10-22T04:38:58;3.45;;;1.60;;
72715;SDS011;60830;64.560;40.542;2022-10-22T04:41:26;4.35;;;1.88;;
72715;SDS011;60830;64.560;40.542;2022-10-22T04:43:53;5.50;;;2.28;;
72715;SDS011;60830;64.560;40.542;2022-10-22T04:46:19;6.43;;;1.98;;
72715;SDS011;60830;64.560;40.542;2022-10-22T04:48:45;3.47;;;1.40;;
72715;SDS011;60830;64.560;40.542;2022-10-22T04:51:13;8.45;;;2.22;;
72715;SDS011;60830;64.560;40.542;2022-10-22T04:53:39;6.38;;;2.00;;
72715;SDS011;60830;64.560;40.542;2022-10-22T04:56:07;6.13;;;2.25;;
72715;SDS011;60830;64.560;40.542;2022-10-22T04:58:33;4.72;;;1.55;;
72715;SDS011;60830;64.560;40.542;2022-10-22T05:00:59;10.15;;;2.53;;
72715;SDS011;60830;64.560;40.542;2022-10-22T05:03:25;3.45;;;2.03;;
72715;SDS011;60830;64.560;40.542;2022-10-22T05:05:51;3.22;;;2.00;;
72715;SDS011;60830;64.560;40.542;2022-10-22T05:08:17;3.72;;;2.03;;
72715;SDS011;60830;64.560;40.542;2022-10-22T05:10:43;10.93;;;2.28;;
72715;SDS011;60830;64.560;40.542;2022-10-22T05:13:10;2.10;;;1.77;;
72715;SDS011;60830;64.560;40.542;2022-10-22T05:15:36;7.45;;;2.50;;
72715;SDS011;60830;64.560;40.542;2022-10-22T05:18:02;6.38;;;2.22;;
72715;SDS011;60830;64.560;40.542;2022-10-22T05:20:28;2.25;;;1.92;;
72715;SDS011;60830;64.560;40.542;2022-10-22T05:22:54;5.35;;;2.33;;
72715;SDS011;60830;64.560;40.542;2022-10-22T05:25:20;3.58;;;1.63;;
72715;SDS011;60830;64.560;40.542;2022-10-22T05:27:49;5.18;;;2.30;;
72715;SDS011;60830;64.560;40.542;2022-10-22T05:30:15;6.80;;;2.10;;
72715;SDS011;60830;64.560;40.542;2022-10-22T05:32:41;1.60;;;1.48;;
72715;SDS011;60830;64.560;40.542;2022-10-22T05:35:07;4.43;;;2.55;;
72715;SDS011;60830;64.560;40.542;2022-10-22T05:37:33;3.38;;;2.30;;
72715;SDS011;60830;64.560;40.542;2022-10-22T05:39:59;4.95;;;2.22;;
72715;SDS011;60830;64.560;40.542;2022-10-22T05:42:29;4.10;;;1.90;;
72715;SDS011;60830;64.560;40.542;2022-10-22T05:44:55;3.95;;;1.95;;
72715;SDS011;60830;64.560;40.542;2022-10-22T05:47:22;3.50;;;1.80;;
72715;SDS011;60830;64.560;40.542;2022-10-22T05:49:48;2.83;;;1.95;;
72715;SDS011;60830;64.560;40.542;2022-10-22T05:52:14;2.90;;;2.10;;
72715;SDS011;60830;64.560;40.542;2022-10-22T05:54:40;5.85;;;2.20;;
72715;SDS011;60830;64.560;40.542;2022-10-22T05:57:06;5.78;;;2.13;;
72715;SDS011;60830;64.560;40.542;2022-10-22T05:59:32;2.90;;;1.85;;
72715;SDS011;60830;64.560;40.542;2022-10-22T06:01:58;2.75;;;1.80;;
72715;SDS011;60830;64.560;40.542;2022-10-22T06:04:24;5.07;;;2.53;;
72715;SDS011;60830;64.560;40.542;2022-10-22T06:06:51;8.00;;;2.10;;
72715;SDS011;60830;64.560;40.542;2022-10-22T06:09:21;5.07;;;1.52;;
72715;SDS011;60830;64.560;40.542;2022-10-22T06:11:48;1.98;;;1.83;;
72715;SDS011;60830;64.560;40.542;2022-10-22T06:14:16;4.72;;;1.73;;
72715;SDS011;60830;64.560;40.542;2022-10-22T06:16:42;1.67;;;1.52;;
72715;SDS011;60830;64.560;40.542;2022-10-22T06:19:10;3.60;;;1.42;;
72715;SDS011;60830;64.560;40.542;2022-10-22T06:21:36;1.85;;;1.40;;
72715;SDS011;60830;64.560;40.542;2022-10-22T06:24:02;5.70;;;1.52;;
72715;SDS011;60830;64.560;40.542;2022-10-22T06:26:28;3.97;;;1.75;;
72715;SDS011;60830;64.560;40.542;2022-10-22T06:28:55;2.90;;;1.38;;
72715;SDS011;60830;64.560;40.542;2022-10-22T06:31:22;3.65;;;1.45;;
72715;SDS011;60830;64.560;40.542;2022-10-22T06:33:48;2.63;;;1.55;;
72715;SDS011;60830;64.560;40.542;2022-10-22T06:36:15;3.05;;;1.52;;
72715;SDS011;60830;64.560;40.542;2022-10-22T06:38:41;2.30;;;1.20;;
72715;SDS011;60830;64.560;40.542;2022-10-22T06:41:14;1.88;;;1.20;;
72715;SDS011;60830;64.560;40.542;2022-10-22T06:43:44;2.05;;;1.20;;
72715;SDS011;60830;64.560;40.542;2022-10-22T06:46:12;1.73;;;1.40;;
72715;SDS011;60830;64.560;40.542;2022-10-22T06:48:39;1.33;;;1.23;;
72715;SDS011;60830;64.560;40.542;2022-10-22T06:51:09;4.30;;;1.38;;
72715;SDS011;60830;64.560;40.542;2022-10-22T06:53:36;2.15;;;1.15;;
72715;SDS011;60830;64.560;40.542;2022-10-22T06:56:12;1.98;;;1.08;;
72715;SDS011;60830;64.560;40.542;2022-10-22T06:58:39;1.98;;;1.10;;
72715;SDS011;60830;64.560;40.542;2022-10-22T07:03:31;1.48;;;1.20;;
72715;SDS011;60830;64.560;40.542;2022-10-22T07:05:58;4.03;;;1.33;;
72715;SDS011;60830;64.560;40.542;2022-10-22T07:08:25;4.47;;;1.13;;
72715;SDS011;60830;64.560;40.542;2022-10-22T07:10:51;3.88;;;1.30;;
72715;SDS011;60830;64.560;40.542;2022-10-22T07:13:17;1.75;;;1.13;;
72715;SDS011;60830;64.560;40.542;2022-10-22T07:15:43;2.45;;;1.30;;
72715;SDS011;60830;64.560;40.542;2022-10-22T07:18:10;2.45;;;1.20;;
72715;SDS011;60830;64.560;40.542;2022-10-22T07:20:36;1.30;;;1.00;;
72715;SDS011;60830;64.560;40.542;2022-10-22T07:23:02;2.63;;;1.15;;
72715;SDS011;60830;64.560;40.542;2022-10-22T07:25:28;3.45;;;1.30;;
72715;SDS011;60830;64.560;40.542;2022-10-22T07:27:54;1.33;;;0.90;;
72715;SDS011;60830;64.560;40.542;2022-10-22T07:30:20;2.20;;;1.25;;
72715;SDS011;60830;64.560;40.542;2022-10-22T07:32:46;1.77;;;1.10;;
72715;SDS011;60830;64.560;40.542;2022-10-22T07:35:12;3.65;;;1.45;;
72715;SDS011;60830;64.560;40.542;2022-10-22T07:37:38;2.03;;;1.17;;
72715;SDS011;60830;64.560;40.542;2022-10-22T07:40:04;3.80;;;1.23;;
72715;SDS011;60830;64.560;40.542;2022-10-22T07:42:31;2.70;;;1.17;;
72715;SDS011;60830;64.560;40.542;2022-10-22T07:44:57;1.27;;;1.08;;
72715;SDS011;60830;64.560;40.542;2022-10-22T07:47:23;1.15;;;1.00;;
72715;SDS011;60830;64.560;40.542;2022-10-22T07:49:49;2.50;;;1.40;;
72715;SDS011;60830;64.560;40.542;2022-10-22T07:52:15;1.67;;;1.10;;
72715;SDS011;60830;64.560;40.542;2022-10-22T07:54:41;2.72;;;1.20;;
72715;SDS011;60830;64.560;40.542;2022-10-22T07:57:07;3.28;;;1.20;;
72715;SDS011;60830;64.560;40.542;2022-10-22T07:59:33;3.35;;;1.45;;
72715;SDS011;60830;64.560;40.542;2022-10-22T08:01:59;2.47;;;1.10;;
72715;SDS011;60830;64.560;40.542;2022-10-22T08:04:25;2.40;;;1.25;;
72715;SDS011;60830;64.560;40.542;2022-10-22T08:06:51;2.78;;;1.52;;
72715;SDS011;60830;64.560;40.542;2022-10-22T08:09:17;3.67;;;1.35;;
72715;SDS011;60830;64.560;40.542;2022-10-22T08:11:43;3.78;;;1.38;;
72715;SDS011;60830;64.560;40.542;2022-10-22T08:14:11;1.52;;;1.40;;
72715;SDS011;60830;64.560;40.542;2022-10-22T08:16:37;3.83;;;1.40;;
72715;SDS011;60830;64.560;40.542;2022-10-22T08:19:03;5.78;;;1.75;;
72715;SDS011;60830;64.560;40.542;2022-10-22T08:21:29;1.80;;;1.25;;
72715;SDS011;60830;64.560;40.542;2022-10-22T08:23:55;3.53;;;1.23;;
72715;SDS011;60830;64.560;40.542;2022-10-22T08:26:21;1.33;;;1.08;;
72715;SDS011;60830;64.560;40.542;2022-10-22T08:28:47;1.65;;;1.40;;
72715;SDS011;60830;64.560;40.542;2022-10-22T08:31:13;2.50;;;1.10;;
72715;SDS011;60830;64.560;40.542;2022-10-22T08:33:39;1.75;;;1.13;;
72715;SDS011;60830;64.560;40.542;2022-10-22T08:36:06;2.13;;;1.35;;
72715;SDS011;60830;64.560;40.542;2022-10-22T08:38:32;3.33;;;1.15;;
72715;SDS011;60830;64.560;40.542;2022-10-22T08:41:03;3.08;;;1.20;;
72715;SDS011;60830;64.560;40.542;2022-10-22T08:43:35;3.75;;;1.55;;
72715;SDS011;60830;64.560;40.542;2022-10-22T08:48:38;1.58;;;0.90;;
72715;SDS011;60830;64.560;40.542;2022-10-22T08:51:06;2.03;;;0.93;;
72715;SDS011;60830;64.560;40.542;2022-10-22T08:53:41;4.30;;;1.38;;
72715;SDS011;60830;64.560;40.542;2022-10-22T08:56:10;2.55;;;1.20;;
72715;SDS011;60830;64.560;40.542;2022-10-22T08:58:45;3.75;;;1.23;;
72715;SDS011;60830;64.560;40.542;2022-10-22T09:01:21;3.30;;;1.85;;
72715;SDS011;60830;64.560;40.542;2022-10-22T09:06:30;2.72;;;1.30;;
72715;SDS011;60830;64.560;40.542;2022-10-22T09:08:57;2.40;;;0.90;;
72715;SDS011;60830;64.560;40.542;2022-10-22T09:11:31;3.83;;;1.00;;
72715;SDS011;60830;64.560;40.542;2022-10-22T09:13:58;1.37;;;1.27;;
72715;SDS011;60830;64.560;40.542;2022-10-22T09:16:33;1.45;;;0.93;;
72715;SDS011;60830;64.560;40.542;2022-10-22T09:19:05;3.78;;;1.10;;
72715;SDS011;60830;64.560;40.542;2022-10-22T09:21:48;1.40;;;1.30;;
72715;SDS011;60830;64.560;40.542;2022-10-22T09:24:26;1.95;;;0.77;;
72715;SDS011;60830;64.560;40.542;2022-10-22T09:26:54;2.58;;;1.30;;
72715;SDS011;60830;64.560;40.542;2022-10-22T09:29:21;3.00;;;1.10;;
72715;SDS011;60830;64.560;40.542;2022-10-22T09:31:49;1.42;;;0.98;;
72715;SDS011;60830;64.560;40.542;2022-10-22T09:34:18;3.97;;;1.20;;
72715;SDS011;60830;64.560;40.542;2022-10-22T09:36:45;1.75;;;0.90;;
72715;SDS011;60830;64.560;40.542;2022-10-22T09:39:21;1.65;;;0.90;;
72715;SDS011;60830;64.560;40.542;2022-10-22T09:41:47;0.80;;;0.80;;
72715;SDS011;60830;64.560;40.542;2022-10-22T09:44:14;1.23;;;0.80;;
72715;SDS011;60830;64.560;40.542;2022-10-22T09:46:40;3.97;;;0.90;;
72715;SDS011;60830;64.560;40.542;2022-10-22T09:49:11;2.47;;;0.85;;
72715;SDS011;60830;64.560;40.542;2022-10-22T09:51:46;5.00;;;1.60;;
72715;SDS011;60830;64.560;40.542;2022-10-22T09:54:14;3.35;;;1.20;;
72715;SDS011;60830;64.560;40.542;2022-10-22T09:56:41;3.42;;;1.40;;
72715;SDS011;60830;64.560;40.542;2022-10-22T09:59:13;2.33;;;1.00;;
72715;SDS011;60830;64.560;40.542;2022-10-22T10:01:39;1.85;;;1.40;;
72715;SDS011;60830;64.560;40.542;2022-10-22T10:04:07;2.05;;;0.95;;
72715;SDS011;60830;64.560;40.542;2022-10-22T10:06:34;1.17;;;0.73;;
72715;SDS011;60830;64.560;40.542;2022-10-22T10:09:01;0.82;;;0.82;;
72715;SDS011;60830;64.560;40.542;2022-10-22T10:11:40;2.50;;;0.90;;
72715;SDS011;60830;64.560;40.542;2022-10-22T10:14:17;1.10;;;0.75;;
72715;SDS011;60830;64.560;40.542;2022-10-22T10:32:35;2.10;;;1.20;;
72715;SDS011;60830;64.560;40.542;2022-10-22T10:37:34;1.13;;;0.70;;
72715;SDS011;60830;64.560;40.542;2022-10-22T10:40:18;2.58;;;1.00;;
72715;SDS011;60830;64.560;40.542;2022-10-22T10:58:37;0.60;;;0.60;;
72715;SDS011;60830;64.560;40.542;2022-10-22T11:04:18;0.90;;;0.90;;
72715;SDS011;60830;64.560;40.542;2022-10-22T11:06:23;1.40;;;0.90;;
72715;SDS011;60830;64.560;40.542;2022-10-22T11:08:52;1.50;;;1.20;;
72715;SDS011;60830;64.560;40.542;2022-10-22T11:11:25;1.65;;;0.90;;
72715;SDS011;60830;64.560;40.542;2022-10-22T11:13:58;0.85;;;0.77;;
72715;SDS011;60830;64.560;40.542;2022-10-22T11:16:34;1.25;;;1.15;;
72715;SDS011;60830;64.560;40.542;2022-10-22T11:19:03;3.03;;;1.38;;
72715;SDS011;60830;64.560;40.542;2022-10-22T11:24:34;4.03;;;1.58;;
72715;SDS011;60830;64.560;40.542;2022-10-22T11:29:29;1.80;;;1.70;;
72715;SDS011;60830;64.560;40.542;2022-10-22T11:31:57;1.30;;;1.20;;
72715;SDS011;60830;64.560;40.542;2022-10-22T11:34:26;0.88;;;0.82;;
72715;SDS011;60830;64.560;40.542;2022-10-22T11:36:53;1.00;;;0.90;;
72715;SDS011;60830;64.560;40.542;2022-10-22T11:39:27;1.17;;;1.10;;
72715;SDS011;60830;64.560;40.542;2022-10-22T11:41:54;1.00;;;0.95;;
72715;SDS011;60830;64.560;40.542;2022-10-22T11:44:20;3.03;;;1.08;;
72715;SDS011;60830;64.560;40.542;2022-10-22T11:46:55;1.08;;;0.98;;
72715;SDS011;60830;64.560;40.542;2022-10-22T11:49:24;1.98;;;1.30;;
72715;SDS011;60830;64.560;40.542;2022-10-22T11:51:51;1.60;;;1.23;;
72715;SDS011;60830;64.560;40.542;2022-10-22T11:54:31;1.63;;;0.93;;
72715;SDS011;60830;64.560;40.542;2022-10-22T11:57:26;2.30;;;1.10;;
72715;SDS011;60830;64.560;40.542;2022-10-22T11:59:56;1.90;;;0.98;;
72715;SDS011;60830;64.560;40.542;2022-10-22T12:02:31;1.23;;;0.90;;
72715;SDS011;60830;64.560;40.542;2022-10-22T12:10:20;3.47;;;1.48;;
72715;SDS011;60830;64.560;40.542;2022-10-22T12:12:57;1.40;;;1.30;;
72715;SDS011;60830;64.560;40.542;2022-10-22T12:15:25;1.17;;;0.85;;
72715;SDS011;60830;64.560;40.542;2022-10-22T12:17:57;3.13;;;1.67;;
72715;SDS011;60830;64.560;40.542;2022-10-22T12:20:24;1.13;;;1.10;;
72715;SDS011;60830;64.560;40.542;2022-10-22T12:22:51;2.10;;;1.02;;
72715;SDS011;60830;64.560;40.542;2022-10-22T12:25:18;2.67;;;1.20;;
72715;SDS011;60830;64.560;40.542;2022-10-22T12:27:51;1.48;;;1.38;;
72715;SDS011;60830;64.560;40.542;2022-10-22T12:30:20;1.48;;;1.10;;
72715;SDS011;60830;64.560;40.542;2022-10-22T12:32:52;1.85;;;1.63;;
72715;SDS011;60830;64.560;40.542;2022-10-22T12:35:20;2.28;;;1.40;;
72715;SDS011;60830;64.560;40.542;2022-10-22T12:37:50;1.55;;;1.35;;
72715;SDS011;60830;64.560;40.542;2022-10-22T12:40:18;1.90;;;1.50;;
72715;SDS011;60830;64.560;40.542;2022-10-22T12:45:37;4.03;;;1.05;;
72715;SDS011;60830;64.560;40.542;2022-10-22T12:48:10;3.60;;;1.65;;
72715;SDS011;60830;64.560;40.542;2022-10-22T12:50:39;2.30;;;1.30;;
72715;SDS011;60830;64.560;40.542;2022-10-22T12:53:17;2.20;;;1.50;;
72715;SDS011;60830;64.560;40.542;2022-10-22T12:55:48;1.00;;;0.73;;
72715;SDS011;60830;64.560;40.542;2022-10-22T12:58:16;1.13;;;0.70;;
72715;SDS011;60830;64.560;40.542;2022-10-22T13:00:43;1.55;;;0.80;;
72715;SDS011;60830;64.560;40.542;2022-10-22T13:03:10;1.50;;;1.23;;
72715;SDS011;60830;64.560;40.542;2022-10-22T13:05:43;1.50;;;0.90;;
72715;SDS011;60830;64.560;40.542;2022-10-22T13:08:16;0.82;;;0.82;;
72715;SDS011;60830;64.560;40.542;2022-10-22T13:10:48;1.27;;;1.15;;
72715;SDS011;60830;64.560;40.542;2022-10-22T13:16:12;1.50;;;1.40;;
72715;SDS011;60830;64.560;40.542;2022-10-22T13:18:38;1.23;;;1.10;;
72715;SDS011;60830;64.560;40.542;2022-10-22T13:21:05;2.30;;;0.95;;
72715;SDS011;60830;64.560;40.542;2022-10-22T13:23:31;1.60;;;1.15;;
72715;SDS011;60830;64.560;40.542;2022-10-22T13:28:34;1.45;;;1.20;;
72715;SDS011;60830;64.560;40.542;2022-10-22T13:31:01;1.73;;;1.10;;
72715;SDS011;60830;64.560;40.542;2022-10-22T13:33:34;1.13;;;1.00;;
72715;SDS011;60830;64.560;40.542;2022-10-22T13:36:02;1.73;;;0.98;;
72715;SDS011;60830;64.560;40.542;2022-10-22T13:38:29;1.35;;;1.25;;
72715;SDS011;60830;64.560;40.542;2022-10-22T13:40:55;1.58;;;0.98;;
72715;SDS011;60830;64.560;40.542;2022-10-22T13:43:22;1.92;;;1.23;;
72715;SDS011;60830;64.560;40.542;2022-10-22T13:45:51;1.58;;;1.20;;
72715;SDS011;60830;64.560;40.542;2022-10-22T13:48:18;1.30;;;1.20;;
72715;SDS011;60830;64.560;40.542;2022-10-22T13:50:49;2.10;;;1.38;;
72715;SDS011;60830;64.560;40.542;2022-10-22T13:53:23;2.28;;;1.98;;
72715;SDS011;60830;64.560;40.542;2022-10-22T13:55:50;1.73;;;1.45;;
72715;SDS011;60830;64.560;40.542;2022-10-22T13:58:17;3.55;;;1.63;;
72715;SDS011;60830;64.560;40.542;2022-10-22T14:00:56;1.33;;;1.33;;
72715;SDS011;60830;64.560;40.542;2022-10-22T14:03:27;4.13;;;1.00;;
72715;SDS011;60830;64.560;40.542;2022-10-22T14:05:54;2.92;;;1.45;;
72715;SDS011;60830;64.560;40.542;2022-10-22T14:08:21;1.48;;;1.38;;
72715;SDS011;60830;64.560;40.542;2022-10-22T14:10:47;2.53;;;1.50;;
72715;SDS011;60830;64.560;40.542;2022-10-22T14:13:14;1.63;;;1.20;;
72715;SDS011;60830;64.560;40.542;2022-10-22T14:15:41;2.00;;;1.00;;
72715;SDS011;60830;64.560;40.542;2022-10-22T14:18:07;1.45;;;1.23;;
72715;SDS011;60830;64.560;40.542;2022-10-22T14:20:37;1.63;;;1.52;;
72715;SDS011;60830;64.560;40.542;2022-10-22T14:23:12;1.80;;;1.70;;
72715;SDS011;60830;64.560;40.542;2022-10-22T14:25:39;2.72;;;1.25;;
72715;SDS011;60830;64.560;40.542;2022-10-22T14:28:07;3.60;;;1.60;;
72715;SDS011;60830;64.560;40.542;2022-10-22T14:30:33;1.55;;;1.45;;
72715;SDS011;60830;64.560;40.542;2022-10-22T14:33:00;2.55;;;1.10;;
72715;SDS011;60830;64.560;40.542;2022-10-22T14:35:26;3.20;;;1.10;;
72715;SDS011;60830;64.560;40.542;2022-10-22T14:37:52;1.40;;;1.30;;
72715;SDS011;60830;64.560;40.542;2022-10-22T14:40:19;2.75;;;1.10;;
72715;SDS011;60830;64.560;40.542;2022-10-22T14:42:46;1.38;;;1.10;;
72715;SDS011;60830;64.560;40.542;2022-10-22T14:45:14;1.25;;;1.00;;
72715;SDS011;60830;64.560;40.542;2022-10-22T14:47:41;1.90;;;1.67;;
72715;SDS011;60830;64.560;40.542;2022-10-22T14:50:07;1.58;;;1.27;;
72715;SDS011;60830;64.560;40.542;2022-10-22T14:52:34;2.58;;;1.05;;
72715;SDS011;60830;64.560;40.542;2022-10-22T14:55:00;1.33;;;1.13;;
72715;SDS011;60830;64.560;40.542;2022-10-22T14:57:26;1.92;;;1.17;;
72715;SDS011;60830;64.560;40.542;2022-10-22T14:59:52;1.90;;;1.70;;
72715;SDS011;60830;64.560;40.542;2022-10-22T15:02:21;2.65;;;1.10;;
72715;SDS011;60830;64.560;40.542;2022-10-22T15:04:49;1.02;;;1.02;;
72715;SDS011;60830;64.560;40.542;2022-10-22T15:07:15;1.52;;;1.10;;
72715;SDS011;60830;64.560;40.542;2022-10-22T15:09:42;1.10;;;1.10;;
72715;SDS011;60830;64.560;40.542;2022-10-22T15:12:08;2.20;;;1.13;;
72715;SDS011;60830;64.560;40.542;2022-10-22T15:14:34;3.03;;;1.30;;
72715;SDS011;60830;64.560;40.542;2022-10-22T15:17:00;1.40;;;1.25;;
72715;SDS011;60830;64.560;40.542;2022-10-22T15:19:28;2.03;;;1.23;;
72715;SDS011;60830;64.560;40.542;2022-10-22T15:21:54;2.55;;;1.20;;
72715;SDS011;60830;64.560;40.542;2022-10-22T15:24:20;2.70;;;1.33;;
72715;SDS011;60830;64.560;40.542;2022-10-22T15:26:46;1.08;;;1.08;;
72715;SDS011;60830;64.560;40.542;2022-10-22T15:29:12;4.78;;;1.27;;
72715;SDS011;60830;64.560;40.542;2022-10-22T15:31:49;1.42;;;1.02;;
72715;SDS011;60830;64.560;40.542;2022-10-22T15:34:22;1.77;;;1.38;;
72715;SDS011;60830;64.560;40.542;2022-10-22T15:36:49;1.38;;;0.75;;
72715;SDS011;60830;64.560;40.542;2022-10-22T15:39:16;1.30;;;1.20;;
72715;SDS011;60830;64.560;40.542;2022-10-22T15:41:42;1.10;;;1.10;;
72715;SDS011;60830;64.560;40.542;2022-10-22T15:44:13;1.10;;;1.10;;
72715;SDS011;60830;64.560;40.542;2022-10-22T15:46:39;1.30;;;1.20;;
72715;SDS011;60830;64.560;40.542;2022-10-22T15:49:05;1.38;;;1.08;;
72715;SDS011;60830;64.560;40.542;2022-10-22T15:51:32;1.17;;;1.08;;
72715;SDS011;60830;64.560;40.542;2022-10-22T15:53:58;0.90;;;0.70;;
72715;SDS011;60830;64.560;40.542;2022-10-22T15:56:25;0.98;;;0.98;;
72715;SDS011;60830;64.560;40.542;2022-10-22T15:58:52;1.20;;;1.13;;
72715;SDS011;60830;64.560;40.542;2022-10-22T16:01:18;1.20;;;1.00;;
72715;SDS011;60830;64.560;40.542;2022-10-22T16:03:44;1.95;;;1.23;;
72715;SDS011;60830;64.560;40.542;2022-10-22T16:06:10;1.25;;;1.15;;
72715;SDS011;60830;64.560;40.542;2022-10-22T16:08:37;0.90;;;0.90;;